This is the latest recevied weather packets stored in our database for station/object KE6JJJ-1. If no packets are shown the sender has not sent any weather packets the latest 10 day(s).
| Time | Temp. | Humidity | Pressure | Rain* | Wind** | Luminosity | Snow |
|---|---|---|---|---|---|---|---|
| 1777458903 | 12.78° C | 86% | 1018.7 hPa | 0 mm | - | 0 W/m² | - |
| 1777457104 | 12.78° C | 86% | 1018.4 hPa | 0 mm | - | 0 W/m² | - |
| 1777455303 | 12.78° C | 85% | 1018.5 hPa | 0 mm | - | 0 W/m² | - |
| 1777453503 | 12.78° C | 85% | 1018.9 hPa | 0 mm | - | 0 W/m² | - |
| 1777451704 | 12.78° C | 84% | 1019.5 hPa | 0 mm | - | 0 W/m² | - |
| 1777449903 | 13.33° C | 84% | 1019.1 hPa | 0 mm | - | 0 W/m² | - |
| 1777448104 | 13.33° C | 83% | 1019.2 hPa | 0 mm | - | 0 W/m² | - |
| 1777444503 | 13.33° C | 84% | 1019.1 hPa | 0 mm | - | 0 W/m² | - |
| 1777442703 | 13.33° C | 84% | 1019.1 hPa | 0 mm | - | 0 W/m² | - |
| 1777440903 | 13.89° C | 83% | 1019.2 hPa | 0 mm | - | 0 W/m² | - |
| 1777439103 | 13.89° C | 81% | 1019.1 hPa | 0 mm | - | 0 W/m² | - |
| 1777437304 | 14.44° C | 80% | 1019.2 hPa | 0 mm | - | 0 W/m² | - |
| 1777435503 | 14.44° C | 78% | 1018.9 hPa | 0 mm | - | 0 W/m² | - |
| 1777433703 | 15.56° C | 75% | 1018.4 hPa | 0 mm | - | 0 W/m² | - |
| 1777431903 | 16.11° C | 71% | 1018.1 hPa | 0 mm | - | 0 W/m² | - |
| 1777430103 | 17.22° C | 67% | 1017.8 hPa | 0 mm | - | 19 W/m² | - |
| 1777428303 | 17.78° C | 64% | 1018 hPa | 0 mm | - | 95 W/m² | - |
| 1777426503 | 18.33° C | 65% | 1018.3 hPa | 0 mm | - | 193 W/m² | - |
| 1777424703 | 18.89° C | 63% | 1018.2 hPa | 0 mm | - | 301 W/m² | - |
| 1777422903 | 19.44° C | 62% | 1018.4 hPa | 0 mm | - | 406 W/m² | - |
| 1777421103 | 19.44° C | 62% | 1018.4 hPa | 0 mm | - | 499 W/m² | - |
| 1777419303 | 18.89° C | 63% | 1018.3 hPa | 0 mm | - | 589 W/m² | - |
| 1777415744 | 18.89° C | 63% | 1018.6 hPa | 0 mm | - | 744 W/m² | - |
| 1777415703 | 18.89° C | 63% | 1018.6 hPa | 0 mm | - | 744 W/m² | - |
| 1777413903 | 18.89° C | 63% | 1018.9 hPa | 0 mm | - | 803 W/m² | - |
* Rain latest hour (hover to see other rain measurements)
** Current wind speed in m/s (hover to see current wind gust speed)